Cleveland, Ohio
Traffic Map
Current Weather Conditions
Cleveland, Ohio
Overcast
Overcast
13°
Feels Like: 13°
Wind Chill: 13° Ceiling: 1400
Heat Index: 13° Visibility: 10mi
Dew Point: 11° Wind: 15mph
Humidity: 89% Direction: 290° (WNW)
Pressure: 29.83in Gusts: 0mph
Raw Report DataKBKL 210510Z AUTO 29013KT 10SM SCT009 BKN014 OVC025 13/11 A2983 RMK AO2 T01280111 TSNO
Traffic Incident Summary
Active as of:
Severity:
Category:
InformationThere was an issue retrieving the traffic information for this location. Please try a different location or try again shortly.
Advertisements
Track Severe Weather on mobile